createdAt,value
2022-10-04T00:02:24.869Z,99824.38
2022-10-04T00:05:16.345Z,99873.63
2022-10-04T00:08:36.840Z,99854.72
2022-10-04T00:11:29.313Z,99857.38
2022-10-04T00:14:20.855Z,99857.41
2022-10-04T00:17:14.014Z,99844.06
2022-10-04T00:20:01.597Z,99778.69
2022-10-04T00:23:25.501Z,99833.59
2022-10-04T00:26:23.974Z,99838.06
2022-10-04T00:29:35.510Z,99850.03
2022-10-04T00:32:27.750Z,99841.66
2022-10-04T00:35:26.730Z,99830.53
2022-10-04T00:38:25.753Z,99827.97
2022-10-04T00:41:13.681Z,99831.50
2022-10-04T00:44:01.987Z,99815.03
2022-10-04T00:46:51.658Z,99788.25
2022-10-04T00:49:42.913Z,99847.25
2022-10-04T00:52:34.889Z,99779.63
2022-10-04T00:55:44.368Z,99838.00
2022-10-04T00:58:38.248Z,99824.25
2022-10-04T01:01:29.254Z,99838.09
2022-10-04T01:04:27.715Z,99829.16
2022-10-04T01:07:18.948Z,99819.63
2022-10-04T01:10:14.517Z,99809.50
2022-10-04T01:13:09.823Z,99821.09
2022-10-04T01:16:17.785Z,99820.59
2022-10-04T01:19:22.687Z,99802.16
2022-10-04T01:22:18.066Z,99819.44
2022-10-04T01:25:05.172Z,99816.06
2022-10-04T01:27:52.743Z,99808.03
2022-10-04T01:30:39.157Z,99793.78
2022-10-04T01:33:25.950Z,99790.94
2022-10-04T01:36:12.783Z,99743.16
2022-10-04T01:38:59.656Z,99778.41
2022-10-04T01:41:48.819Z,99790.63
2022-10-04T01:44:51.161Z,99789.03
2022-10-04T01:47:53.868Z,99759.56
2022-10-04T01:50:47.484Z,99775.44
2022-10-04T01:54:06.972Z,99771.25
2022-10-04T01:56:59.100Z,99770.78
2022-10-04T01:59:56.374Z,99743.78
2022-10-04T02:02:55.292Z,99773.50
2022-10-04T02:05:52.077Z,99766.53
2022-10-04T02:08:45.728Z,99767.34
2022-10-04T02:11:32.169Z,99764.75
2022-10-04T02:14:22.180Z,99719.59
2022-10-04T02:17:11.986Z,99757.81
2022-10-04T02:20:01.515Z,99750.53
2022-10-04T02:22:52.361Z,99767.22
2022-10-04T02:25:39.225Z,99752.16
2022-10-04T02:28:25.863Z,99733.53
2022-10-04T02:31:31.153Z,99746.53
2022-10-04T02:34:19.080Z,99755.91
2022-10-04T02:37:07.626Z,99747.19
2022-10-04T02:40:10.504Z,99739.25
2022-10-04T02:43:03.571Z,99758.50
2022-10-04T02:45:55.779Z,99755.19
2022-10-04T02:48:56.489Z,99713.88
2022-10-04T02:51:50.886Z,99714.84
2022-10-04T02:54:45.942Z,99735.66
2022-10-04T02:57:34.548Z,99750.38
2022-10-04T03:00:23.052Z,99758.69
2022-10-04T03:03:18.350Z,99760.47
2022-10-04T03:06:12.472Z,99746.59
2022-10-04T03:09:03.276Z,99742.13
2022-10-04T03:11:51.138Z,99725.50
2022-10-04T03:14:38.483Z,99723.75
2022-10-04T03:17:25.561Z,99719.84
2022-10-04T03:20:21.031Z,99693.16
2022-10-04T03:23:09.720Z,99709.13
2022-10-04T03:26:03.421Z,99729.16
2022-10-04T03:28:50.502Z,99666.31
2022-10-04T03:31:47.163Z,99704.59
2022-10-04T03:34:37.297Z,99679.81
2022-10-04T03:37:25.518Z,99718.91
2022-10-04T03:40:12.499Z,99715.13
2022-10-04T03:43:02.168Z,99697.28
2022-10-04T03:45:49.266Z,99702.66
2022-10-04T03:48:39.529Z,99706.44
2022-10-04T03:51:27.148Z,99706.31
2022-10-04T03:54:18.572Z,99709.44
2022-10-04T03:57:06.337Z,99701.19
2022-10-04T03:59:52.918Z,99687.28
2022-10-04T04:02:56.416Z,99716.00
2022-10-04T04:06:00.405Z,99710.47
2022-10-04T04:08:51.855Z,99718.91
2022-10-04T04:11:38.630Z,99720.28
2022-10-04T04:14:27.449Z,99712.47
2022-10-04T04:17:36.770Z,99706.59
2022-10-04T04:20:36.664Z,99698.75
2022-10-04T04:23:41.589Z,99681.09
2022-10-04T04:26:43.614Z,99710.44
2022-10-04T04:30:05.643Z,99704.66
2022-10-04T04:32:56.643Z,99693.75
2022-10-04T04:35:43.448Z,99656.53
2022-10-04T04:38:29.957Z,99683.84
2022-10-04T04:41:16.368Z,99660.94
2022-10-04T04:44:04.056Z,99721.81
2022-10-04T04:46:50.506Z,99729.97
2022-10-04T04:49:40.107Z,99734.91
2022-10-04T04:52:29.179Z,99720.38
2022-10-04T04:55:39.886Z,99739.91
2022-10-04T04:58:38.859Z,99732.34
2022-10-04T05:01:35.238Z,99749.56
2022-10-04T05:04:26.291Z,99731.28
2022-10-04T05:07:19.613Z,99717.66
2022-10-04T05:10:21.202Z,99732.78
2022-10-04T05:13:11.140Z,99741.50
2022-10-04T05:15:59.104Z,99732.97
2022-10-04T05:18:46.338Z,99732.19
2022-10-04T05:21:36.239Z,99712.19
2022-10-04T05:24:31.762Z,99733.19
2022-10-04T05:27:32.473Z,99720.03
2022-10-04T05:30:24.643Z,99743.84
2022-10-04T05:33:14.671Z,99742.72
2022-10-04T05:36:12.103Z,99733.81
2022-10-04T05:39:14.845Z,99669.88
2022-10-04T05:42:26.971Z,99737.09
2022-10-04T05:45:21.679Z,99745.63
2022-10-04T05:48:09.049Z,99736.38
2022-10-04T05:50:55.832Z,99733.09
2022-10-04T05:53:42.594Z,99719.88
2022-10-04T05:56:31.800Z,99744.75
2022-10-04T05:59:38.980Z,99746.59
2022-10-04T06:02:51.227Z,99740.00
2022-10-04T06:05:43.491Z,99742.16
2022-10-04T06:08:59.647Z,99685.72
2022-10-04T06:12:04.331Z,99739.81
2022-10-04T06:15:28.926Z,99739.06
2022-10-04T06:18:21.769Z,99741.47
2022-10-04T06:21:36.578Z,99737.38
2022-10-04T06:24:34.852Z,99735.28
2022-10-04T06:27:31.325Z,99720.81
2022-10-04T06:30:19.496Z,99712.38
2022-10-04T06:33:20.762Z,99737.28
2022-10-04T06:36:34.195Z,99741.19
2022-10-04T06:39:47.014Z,99743.03
2022-10-04T06:42:56.443Z,99740.69
2022-10-04T06:45:50.346Z,99739.38
2022-10-04T06:48:54.180Z,99723.31
2022-10-04T06:51:52.949Z,99735.78
2022-10-04T06:55:06.082Z,99742.06
2022-10-04T06:58:10.966Z,99736.16
2022-10-04T07:01:06.590Z,99739.25
2022-10-04T07:03:53.129Z,99742.22
2022-10-04T07:07:20.308Z,99674.44
2022-10-04T07:10:35.088Z,99726.00
2022-10-04T07:13:33.114Z,99746.97
2022-10-04T07:16:28.946Z,99729.16
2022-10-04T07:20:00.512Z,99746.63
2022-10-04T07:23:02.872Z,99759.41
2022-10-04T07:25:54.399Z,99736.16
2022-10-04T07:29:03.397Z,99760.91
2022-10-04T07:32:21.282Z,99765.44
2022-10-04T07:35:10.546Z,99771.97
2022-10-04T07:38:12.800Z,99766.06
2022-10-04T07:41:12.483Z,99775.91
2022-10-04T07:44:05.179Z,99760.50
2022-10-04T07:47:00.415Z,99772.38
2022-10-04T07:49:50.924Z,99742.19
2022-10-04T07:52:48.449Z,99762.31
2022-10-04T07:55:44.397Z,99757.16
2022-10-04T07:58:46.730Z,99759.09
2022-10-04T08:01:44.299Z,99766.16
2022-10-04T08:05:07.006Z,99763.69
2022-10-04T08:08:14.131Z,99758.31
2022-10-04T08:11:31.465Z,99758.31
2022-10-04T08:14:30.918Z,99757.59
2022-10-04T08:17:47.466Z,99750.06
2022-10-04T08:20:56.766Z,99754.44
2022-10-04T08:24:11.641Z,99751.09
2022-10-04T08:27:27.578Z,99753.84
2022-10-04T08:30:17.059Z,99733.25
2022-10-04T08:33:22.981Z,99750.63
2022-10-04T08:36:18.381Z,99754.25
2022-10-04T08:39:30.434Z,99756.00
2022-10-04T08:42:58.694Z,99758.63
2022-10-04T08:46:04.558Z,99760.47
2022-10-04T08:49:12.924Z,99752.78
2022-10-04T08:52:37.330Z,99765.03
2022-10-04T08:56:05.063Z,99753.97
2022-10-04T08:59:20.091Z,99761.09
2022-10-04T09:02:15.675Z,99755.28
2022-10-04T09:05:27.300Z,99758.88
2022-10-04T09:08:35.870Z,99754.72
2022-10-04T09:11:30.751Z,99747.84
2022-10-04T09:14:45.778Z,99754.00
2022-10-04T09:17:50.983Z,99747.22
2022-10-04T09:20:49.519Z,99762.84
2022-10-04T09:23:57.047Z,99753.47
2022-10-04T09:26:46.506Z,99742.28
2022-10-04T09:29:49.065Z,99731.03
2022-10-04T09:33:06.373Z,99732.81
2022-10-04T09:36:20.469Z,99709.44
2022-10-04T09:39:30.916Z,99728.50
2022-10-04T09:42:35.952Z,99731.97
2022-10-04T09:45:37.389Z,99718.09
2022-10-04T09:48:36.926Z,99716.38
2022-10-04T09:52:06.341Z,99707.66
2022-10-04T09:55:05.259Z,99719.78
2022-10-04T09:58:23.062Z,99719.75
2022-10-04T10:01:18.517Z,99694.63
2022-10-04T10:04:29.461Z,99722.34
2022-10-04T10:07:34.674Z,99733.53
2022-10-04T10:10:55.731Z,99721.41
2022-10-04T10:14:19.209Z,99729.16
2022-10-04T10:17:21.339Z,99717.84
2022-10-04T10:20:36.285Z,99727.28
2022-10-04T10:23:37.936Z,99729.72
2022-10-04T10:27:02.099Z,99726.31
2022-10-04T10:29:59.343Z,99727.94
2022-10-04T10:33:07.588Z,99721.06
2022-10-04T10:36:23.184Z,99707.03
2022-10-04T10:39:23.033Z,99705.09
2022-10-04T10:42:27.241Z,99711.22
2022-10-04T10:45:21.239Z,99705.09
2022-10-04T10:48:58.029Z,99705.97
2022-10-04T10:52:22.872Z,99705.94
2022-10-04T10:55:44.761Z,99697.94
2022-10-04T10:58:50.076Z,99705.72
2022-10-04T11:02:10.397Z,99713.44
2022-10-04T11:05:23.617Z,99709.97
2022-10-04T11:08:30.001Z,99706.22
2022-10-04T11:12:04.144Z,99707.19
2022-10-04T11:14:53.331Z,99700.84
2022-10-04T11:17:58.640Z,99691.13
2022-10-04T11:21:12.512Z,99684.13
2022-10-04T11:24:14.865Z,99684.22
2022-10-04T11:27:20.294Z,99673.16
2022-10-04T11:30:25.068Z,99666.00
2022-10-04T11:33:29.960Z,99675.41
2022-10-04T11:36:22.495Z,99668.44
2022-10-04T11:39:27.260Z,99664.78
2022-10-04T11:42:32.417Z,99655.94
2022-10-04T11:45:38.293Z,99651.50
2022-10-04T11:48:37.742Z,99641.00
2022-10-04T11:51:53.602Z,99650.34
2022-10-04T11:55:06.607Z,99641.38
2022-10-04T11:58:14.622Z,99590.56
2022-10-04T12:01:32.074Z,99639.88
2022-10-04T12:04:30.738Z,99633.56
2022-10-04T12:07:38.573Z,99633.25
2022-10-04T12:10:33.973Z,99615.25
2022-10-04T12:14:06.666Z,99631.00
2022-10-04T12:17:28.821Z,99628.84
2022-10-04T12:20:28.760Z,99624.56
2022-10-04T12:23:21.258Z,99626.06
2022-10-04T12:26:41.459Z,99619.50
2022-10-04T12:30:00.102Z,99623.53
2022-10-04T12:33:10.669Z,99616.75
2022-10-04T12:36:38.475Z,99618.34
2022-10-04T12:39:31.109Z,99624.34
2022-10-04T12:42:45.521Z,99617.13
2022-10-04T12:45:57.047Z,99605.31
2022-10-04T12:49:05.850Z,99565.56
2022-10-04T12:52:15.351Z,99594.50
2022-10-04T12:55:26.637Z,99589.94
2022-10-04T12:58:43.235Z,99581.06
2022-10-04T13:01:44.801Z,99595.53
2022-10-04T13:04:53.281Z,99599.34
2022-10-04T13:07:48.428Z,99601.31
2022-10-04T13:10:59.587Z,99603.50
2022-10-04T13:14:07.705Z,99597.06
2022-10-04T13:17:28.116Z,99604.53
2022-10-04T13:20:39.983Z,99599.19
2022-10-04T13:23:36.014Z,99599.56
2022-10-04T13:26:25.388Z,99601.56
2022-10-04T13:29:47.546Z,99588.72
2022-10-04T13:32:50.320Z,99597.22
2022-10-04T13:35:49.879Z,99592.84
2022-10-04T13:38:54.785Z,99589.66
2022-10-04T13:42:17.298Z,99590.81
2022-10-04T13:45:29.183Z,99588.81
2022-10-04T13:48:44.739Z,99586.06
2022-10-04T13:52:19.854Z,99586.19
2022-10-04T13:55:37.617Z,99587.22
2022-10-04T13:58:39.137Z,99589.19
2022-10-04T14:01:25.521Z,99577.25
2022-10-04T14:04:42.467Z,99579.09
2022-10-04T14:07:37.982Z,99573.94
2022-10-04T14:10:43.519Z,99576.72
2022-10-04T14:13:57.958Z,99575.09
2022-10-04T14:17:00.109Z,99566.56
2022-10-04T14:20:02.483Z,99565.72
2022-10-04T14:22:48.689Z,99561.38
2022-10-04T14:25:51.691Z,99565.59
2022-10-04T14:29:02.735Z,99563.03
2022-10-04T14:32:08.168Z,99561.44
2022-10-04T14:35:05.027Z,99552.50
2022-10-04T14:38:04.222Z,99556.94
2022-10-04T14:41:02.893Z,99544.22
2022-10-04T14:44:28.577Z,99544.09
2022-10-04T14:47:34.593Z,99550.97
2022-10-04T14:50:27.140Z,99545.75
2022-10-04T14:53:36.829Z,99532.94
2022-10-04T14:56:48.591Z,99546.69
2022-10-04T15:00:03.589Z,99536.19
2022-10-04T15:03:02.997Z,99537.25
2022-10-04T15:06:10.213Z,99538.06
2022-10-04T15:09:24.236Z,99532.28
2022-10-04T15:13:05.771Z,99531.56
2022-10-04T15:16:01.099Z,99532.44
2022-10-04T15:18:56.284Z,99534.81
2022-10-04T15:22:07.697Z,99532.16
2022-10-04T15:24:55.062Z,99537.38
2022-10-04T15:27:50.350Z,99535.06
2022-10-04T15:30:57.685Z,99525.22
2022-10-04T15:33:54.595Z,99531.06
2022-10-04T15:36:47.555Z,99528.50
2022-10-04T15:39:53.465Z,99436.56
2022-10-04T15:43:11.019Z,99533.06
2022-10-04T15:46:19.076Z,99528.78
2022-10-04T15:49:29.802Z,99526.59
2022-10-04T15:52:38.201Z,99526.56
2022-10-04T15:55:37.878Z,99524.13
2022-10-04T15:59:02.675Z,99520.88
2022-10-04T16:01:55.283Z,99521.53
2022-10-04T16:05:24.891Z,99518.44
2022-10-04T16:08:41.965Z,99504.84
2022-10-04T16:11:34.173Z,99507.88
2022-10-04T16:14:56.497Z,99500.41
2022-10-04T16:17:48.894Z,99509.28
2022-10-04T16:20:38.775Z,99502.59
2022-10-04T16:23:31.711Z,99508.88
2022-10-04T16:26:19.500Z,99506.44
2022-10-04T16:29:30.090Z,99505.84
2022-10-04T16:32:30.640Z,99507.97
2022-10-04T16:35:29.489Z,99510.00
2022-10-04T16:38:25.650Z,99512.81
2022-10-04T16:41:16.145Z,99517.56
2022-10-04T16:44:04.090Z,99527.25
2022-10-04T16:46:52.592Z,99535.19
2022-10-04T16:49:50.046Z,99532.75
2022-10-04T16:52:58.269Z,99537.22
2022-10-04T16:55:56.070Z,99538.16
2022-10-04T16:58:49.747Z,99519.28
2022-10-04T17:02:21.205Z,99543.56
2022-10-04T17:05:22.700Z,99520.25
2022-10-04T17:08:15.214Z,99537.59
2022-10-04T17:11:41.893Z,99529.88
2022-10-04T17:14:50.930Z,99534.25
2022-10-04T17:17:49.552Z,99534.34
2022-10-04T17:20:42.117Z,99526.63
2022-10-04T17:23:50.625Z,99525.81
2022-10-04T17:26:50.263Z,99518.94
2022-10-04T17:29:48.653Z,99515.50
2022-10-04T17:32:55.174Z,99519.88
2022-10-04T17:36:05.604Z,99523.34
2022-10-04T17:38:54.871Z,99513.84
2022-10-04T17:41:50.463Z,99512.97
2022-10-04T17:44:40.944Z,99510.41
2022-10-04T17:47:56.338Z,99507.81
2022-10-04T17:51:20.955Z,99509.56
2022-10-04T17:54:31.761Z,99512.13
2022-10-04T17:57:25.368Z,99519.91
2022-10-04T18:00:14.320Z,99516.44
2022-10-04T18:03:10.060Z,99510.41
2022-10-04T18:06:01.986Z,99513.84
2022-10-04T18:08:57.641Z,99514.69
2022-10-04T18:11:53.402Z,99510.38
2022-10-04T18:15:06.059Z,99516.41
2022-10-04T18:18:10.239Z,99512.94
2022-10-04T18:20:56.581Z,99513.81
2022-10-04T18:23:56.039Z,99515.53
2022-10-04T18:26:59.635Z,99526.75
2022-10-04T18:30:02.703Z,99515.44
2022-10-04T18:32:55.805Z,99524.06
2022-10-04T18:36:05.172Z,99536.09
2022-10-04T18:39:14.486Z,99544.72
2022-10-04T18:42:23.410Z,99545.53
2022-10-04T18:45:30.981Z,99550.66
2022-10-04T18:48:19.473Z,99554.97
2022-10-04T18:51:30.096Z,99555.81
2022-10-04T18:54:35.269Z,99555.78
2022-10-04T18:58:00.936Z,99556.66
2022-10-04T19:01:16.961Z,99546.22
2022-10-04T19:04:12.966Z,99534.03
2022-10-04T19:07:20.886Z,99556.47
2022-10-04T19:10:16.706Z,99569.44
2022-10-04T19:13:20.316Z,99555.53
2022-10-04T19:16:16.039Z,99562.44
2022-10-04T19:19:25.977Z,99567.59
2022-10-04T19:23:03.551Z,99564.94
2022-10-04T19:26:26.265Z,99562.28
2022-10-04T19:29:26.407Z,99558.75
2022-10-04T19:32:18.758Z,99578.66
2022-10-04T19:35:34.262Z,99575.13
2022-10-04T19:38:32.495Z,99569.03
2022-10-04T19:41:27.854Z,99590.59
2022-10-04T19:44:51.959Z,99595.72
2022-10-04T19:48:11.060Z,99602.53
2022-10-04T19:51:15.999Z,99578.28
2022-10-04T19:54:15.983Z,99605.88
2022-10-04T19:57:05.401Z,99608.41
2022-10-04T19:59:51.878Z,99602.25
2022-10-04T20:02:45.968Z,99605.66
2022-10-04T20:05:46.055Z,99611.66
2022-10-04T20:08:47.636Z,99622.91
2022-10-04T20:11:37.253Z,99624.56
2022-10-04T20:14:23.797Z,99624.56
2022-10-04T20:17:10.056Z,99633.97
2022-10-04T20:19:56.523Z,99613.06
2022-10-04T20:22:52.278Z,99644.25
2022-10-04T20:25:45.505Z,99650.22
2022-10-04T20:28:41.746Z,99654.50
2022-10-04T20:31:27.951Z,99650.97
2022-10-04T20:34:36.861Z,99638.66
2022-10-04T20:37:45.125Z,99658.56
2022-10-04T20:40:34.731Z,99658.50
2022-10-04T20:43:26.506Z,99661.03
2022-10-04T20:46:23.504Z,99669.59
2022-10-04T20:49:16.645Z,99665.34
2022-10-04T20:52:03.003Z,99660.03
2022-10-04T20:54:53.433Z,99671.25
2022-10-04T20:57:40.647Z,99667.75
2022-10-04T21:00:29.360Z,99666.00
2022-10-04T21:03:18.212Z,99668.63
2022-10-04T21:06:08.334Z,99664.97
2022-10-04T21:08:54.959Z,99665.81
2022-10-04T21:11:46.192Z,99689.03
2022-10-04T21:14:37.589Z,99684.63
2022-10-04T21:17:30.152Z,99683.72
2022-10-04T21:21:04.544Z,99680.13
2022-10-04T21:23:50.924Z,99674.91
2022-10-04T21:26:37.396Z,99675.69
2022-10-04T21:29:23.636Z,99678.28
2022-10-04T21:32:10.474Z,99676.56
2022-10-04T21:34:57.116Z,99681.59
2022-10-04T21:37:43.349Z,99663.41
2022-10-04T21:40:29.721Z,99665.09
2022-10-04T21:43:16.151Z,99677.19
2022-10-04T21:46:02.546Z,99681.41
2022-10-04T21:48:49.460Z,99688.22
2022-10-04T21:51:37.255Z,99684.78
2022-10-04T21:54:23.753Z,99686.31
2022-10-04T21:57:10.775Z,99694.03
2022-10-04T21:59:57.146Z,99681.09
2022-10-04T22:02:43.567Z,99681.88
2022-10-04T22:05:30.535Z,99685.25
2022-10-04T22:08:17.194Z,99682.53
2022-10-04T22:11:03.629Z,99668.72
2022-10-04T22:13:51.095Z,99669.59
2022-10-04T22:16:37.774Z,99659.06
2022-10-04T22:19:24.216Z,99665.97
2022-10-04T22:22:17.408Z,99650.47
2022-10-04T22:25:13.542Z,99645.25
2022-10-04T22:28:00.197Z,99646.97
2022-10-04T22:30:47.379Z,99640.88
2022-10-04T22:33:35.428Z,99644.25
2022-10-04T22:36:32.671Z,99615.56
2022-10-04T22:39:20.515Z,99639.03
2022-10-04T22:42:07.520Z,99636.47
2022-10-04T22:44:53.915Z,99634.75
2022-10-04T22:47:40.087Z,99630.38
2022-10-04T22:50:33.527Z,99632.97
2022-10-04T22:53:22.204Z,99637.19
2022-10-04T22:56:09.182Z,99628.25
2022-10-04T22:58:55.653Z,99621.28
2022-10-04T23:01:42.944Z,99642.97
2022-10-04T23:04:29.312Z,99647.25
2022-10-04T23:07:15.920Z,99623.09
2022-10-04T23:10:02.337Z,99631.72
2022-10-04T23:12:54.948Z,99638.47
2022-10-04T23:15:41.937Z,99638.38
2022-10-04T23:18:30.270Z,99636.59
2022-10-04T23:21:22.674Z,99630.50
2022-10-04T23:24:18.708Z,99632.22
2022-10-04T23:27:17.259Z,99632.91
2022-10-04T23:30:04.244Z,99639.00
2022-10-04T23:32:53.187Z,99636.44
2022-10-04T23:35:39.591Z,99623.50
2022-10-04T23:38:25.978Z,99625.31
2022-10-04T23:41:12.164Z,99615.78
2022-10-04T23:43:58.513Z,99612.41
2022-10-04T23:46:45.158Z,99601.97
2022-10-04T23:49:31.901Z,99618.44
2022-10-04T23:52:24.916Z,99598.47
2022-10-04T23:55:19.375Z,99605.31
2022-10-04T23:58:13.681Z,99612.13
